sensor_id;sensor_type;location;lat;lon;timestamp;P1;durP1;ratioP1;P2;durP2;ratioP2
76733;SDS011;65660;53.288;14.666;2023-02-01T00:02:09;15.77;;;3.37;;
76733;SDS011;65660;53.288;14.666;2023-02-01T00:07:10;15.07;;;3.10;;
76733;SDS011;65660;53.288;14.666;2023-02-01T00:12:10;14.77;;;2.93;;
76733;SDS011;65660;53.288;14.666;2023-02-01T00:17:10;16.93;;;3.37;;
76733;SDS011;65660;53.288;14.666;2023-02-01T00:22:11;16.00;;;2.90;;
76733;SDS011;65660;53.288;14.666;2023-02-01T00:27:11;19.13;;;3.17;;
76733;SDS011;65660;53.288;14.666;2023-02-01T00:32:12;22.07;;;3.30;;
76733;SDS011;65660;53.288;14.666;2023-02-01T00:37:12;17.93;;;3.40;;
76733;SDS011;65660;53.288;14.666;2023-02-01T00:42:13;12.17;;;2.80;;
76733;SDS011;65660;53.288;14.666;2023-02-01T00:47:13;11.27;;;3.00;;
76733;SDS011;65660;53.288;14.666;2023-02-01T00:52:14;14.97;;;3.30;;
76733;SDS011;65660;53.288;14.666;2023-02-01T00:57:14;15.43;;;3.03;;
76733;SDS011;65660;53.288;14.666;2023-02-01T01:02:15;14.30;;;3.13;;
76733;SDS011;65660;53.288;14.666;2023-02-01T01:07:15;13.60;;;2.67;;
76733;SDS011;65660;53.288;14.666;2023-02-01T01:12:15;11.87;;;3.80;;
76733;SDS011;65660;53.288;14.666;2023-02-01T01:17:16;18.03;;;3.93;;
76733;SDS011;65660;53.288;14.666;2023-02-01T01:22:16;22.33;;;3.27;;
76733;SDS011;65660;53.288;14.666;2023-02-01T01:27:17;15.27;;;3.50;;
76733;SDS011;65660;53.288;14.666;2023-02-01T01:32:17;22.30;;;3.73;;
76733;SDS011;65660;53.288;14.666;2023-02-01T01:37:18;18.40;;;3.37;;
76733;SDS011;65660;53.288;14.666;2023-02-01T01:42:18;12.93;;;3.13;;
76733;SDS011;65660;53.288;14.666;2023-02-01T01:47:19;10.40;;;2.80;;
76733;SDS011;65660;53.288;14.666;2023-02-01T01:52:19;11.90;;;3.13;;
76733;SDS011;65660;53.288;14.666;2023-02-01T01:57:24;18.63;;;3.37;;
76733;SDS011;65660;53.288;14.666;2023-02-01T02:02:27;16.97;;;3.27;;
76733;SDS011;65660;53.288;14.666;2023-02-01T02:07:29;16.03;;;2.93;;
76733;SDS011;65660;53.288;14.666;2023-02-01T02:12:32;14.37;;;3.37;;
76733;SDS011;65660;53.288;14.666;2023-02-01T02:17:36;13.00;;;3.47;;
76733;SDS011;65660;53.288;14.666;2023-02-01T02:44:15;8.60;;;2.10;;
76733;SDS011;65660;53.288;14.666;2023-02-01T02:49:39;11.70;;;3.40;;
76733;SDS011;65660;53.288;14.666;2023-02-01T02:54:45;10.37;;;3.10;;
76733;SDS011;65660;53.288;14.666;2023-02-01T02:59:47;12.20;;;2.67;;
76733;SDS011;65660;53.288;14.666;2023-02-01T03:04:52;7.83;;;2.00;;
76733;SDS011;65660;53.288;14.666;2023-02-01T03:09:53;11.37;;;2.80;;
76733;SDS011;65660;53.288;14.666;2023-02-01T03:14:56;8.57;;;2.50;;
76733;SDS011;65660;53.288;14.666;2023-02-01T03:19:58;13.00;;;3.60;;
76733;SDS011;65660;53.288;14.666;2023-02-01T03:25:05;13.30;;;2.27;;
76733;SDS011;65660;53.288;14.666;2023-02-01T03:30:12;13.77;;;2.90;;
76733;SDS011;65660;53.288;14.666;2023-02-01T03:35:18;9.13;;;2.90;;
76733;SDS011;65660;53.288;14.666;2023-02-01T03:40:23;8.37;;;3.00;;
76733;SDS011;65660;53.288;14.666;2023-02-01T03:45:26;11.03;;;2.33;;
76733;SDS011;65660;53.288;14.666;2023-02-01T03:50:31;10.40;;;2.50;;
76733;SDS011;65660;53.288;14.666;2023-02-01T03:55:32;9.80;;;2.37;;
76733;SDS011;65660;53.288;14.666;2023-02-01T04:00:32;8.90;;;2.30;;
76733;SDS011;65660;53.288;14.666;2023-02-01T04:05:33;10.43;;;2.40;;
76733;SDS011;65660;53.288;14.666;2023-02-01T04:10:34;10.97;;;2.40;;
76733;SDS011;65660;53.288;14.666;2023-02-01T04:15:34;7.27;;;1.90;;
76733;SDS011;65660;53.288;14.666;2023-02-01T04:20:35;13.10;;;2.77;;
76733;SDS011;65660;53.288;14.666;2023-02-01T04:25:35;12.63;;;2.67;;
76733;SDS011;65660;53.288;14.666;2023-02-01T04:30:36;7.93;;;2.30;;
76733;SDS011;65660;53.288;14.666;2023-02-01T04:35:36;10.93;;;2.53;;
76733;SDS011;65660;53.288;14.666;2023-02-01T04:40:37;11.47;;;2.50;;
76733;SDS011;65660;53.288;14.666;2023-02-01T04:45:37;8.90;;;2.63;;
76733;SDS011;65660;53.288;14.666;2023-02-01T04:50:38;10.20;;;2.63;;
76733;SDS011;65660;53.288;14.666;2023-02-01T04:55:38;11.27;;;2.00;;
76733;SDS011;65660;53.288;14.666;2023-02-01T05:00:39;12.90;;;2.73;;
76733;SDS011;65660;53.288;14.666;2023-02-01T05:05:39;14.60;;;3.50;;
76733;SDS011;65660;53.288;14.666;2023-02-01T05:10:40;10.27;;;3.47;;
76733;SDS011;65660;53.288;14.666;2023-02-01T05:15:40;14.23;;;3.83;;
76733;SDS011;65660;53.288;14.666;2023-02-01T05:20:40;12.63;;;3.27;;
76733;SDS011;65660;53.288;14.666;2023-02-01T05:25:41;16.67;;;3.43;;
76733;SDS011;65660;53.288;14.666;2023-02-01T05:30:41;14.73;;;4.23;;
76733;SDS011;65660;53.288;14.666;2023-02-01T05:35:42;14.07;;;2.87;;
76733;SDS011;65660;53.288;14.666;2023-02-01T05:40:42;17.87;;;3.67;;
76733;SDS011;65660;53.288;14.666;2023-02-01T05:45:43;14.03;;;3.40;;
76733;SDS011;65660;53.288;14.666;2023-02-01T05:50:43;13.77;;;3.23;;
76733;SDS011;65660;53.288;14.666;2023-02-01T05:55:44;14.47;;;3.30;;
76733;SDS011;65660;53.288;14.666;2023-02-01T06:00:45;15.23;;;3.13;;
76733;SDS011;65660;53.288;14.666;2023-02-01T06:05:46;17.20;;;3.70;;
76733;SDS011;65660;53.288;14.666;2023-02-01T06:10:47;17.50;;;3.80;;
76733;SDS011;65660;53.288;14.666;2023-02-01T06:15:47;17.90;;;3.57;;
76733;SDS011;65660;53.288;14.666;2023-02-01T06:20:54;21.30;;;3.13;;
76733;SDS011;65660;53.288;14.666;2023-02-01T06:26:00;20.63;;;3.83;;
76733;SDS011;65660;53.288;14.666;2023-02-01T06:31:03;18.57;;;4.00;;
76733;SDS011;65660;53.288;14.666;2023-02-01T06:36:06;18.27;;;3.20;;
76733;SDS011;65660;53.288;14.666;2023-02-01T06:41:08;17.83;;;3.93;;
76733;SDS011;65660;53.288;14.666;2023-02-01T06:46:10;20.50;;;3.50;;
76733;SDS011;65660;53.288;14.666;2023-02-01T06:51:17;22.47;;;4.20;;
76733;SDS011;65660;53.288;14.666;2023-02-01T06:56:22;19.40;;;4.13;;
76733;SDS011;65660;53.288;14.666;2023-02-01T07:01:23;20.47;;;3.27;;
76733;SDS011;65660;53.288;14.666;2023-02-01T07:06:24;20.27;;;4.37;;
76733;SDS011;65660;53.288;14.666;2023-02-01T07:11:24;14.60;;;4.23;;
76733;SDS011;65660;53.288;14.666;2023-02-01T07:16:25;14.40;;;3.73;;
76733;SDS011;65660;53.288;14.666;2023-02-01T07:21:25;14.33;;;4.10;;
76733;SDS011;65660;53.288;14.666;2023-02-01T07:26:26;17.70;;;4.10;;
76733;SDS011;65660;53.288;14.666;2023-02-01T07:31:26;20.13;;;4.40;;
76733;SDS011;65660;53.288;14.666;2023-02-01T07:36:27;12.77;;;4.33;;
76733;SDS011;65660;53.288;14.666;2023-02-01T07:41:27;18.17;;;4.13;;
76733;SDS011;65660;53.288;14.666;2023-02-01T07:46:27;16.60;;;3.60;;
76733;SDS011;65660;53.288;14.666;2023-02-01T07:51:28;15.83;;;3.20;;
76733;SDS011;65660;53.288;14.666;2023-02-01T07:56:28;14.30;;;3.40;;
76733;SDS011;65660;53.288;14.666;2023-02-01T08:01:29;8.90;;;3.00;;
76733;SDS011;65660;53.288;14.666;2023-02-01T08:06:32;11.43;;;2.10;;
76733;SDS011;65660;53.288;14.666;2023-02-01T08:11:36;9.53;;;2.53;;
76733;SDS011;65660;53.288;14.666;2023-02-01T08:16:41;9.50;;;2.30;;
76733;SDS011;65660;53.288;14.666;2023-02-01T08:21:42;6.73;;;2.10;;
76733;SDS011;65660;53.288;14.666;2023-02-01T08:26:42;6.17;;;2.10;;
76733;SDS011;65660;53.288;14.666;2023-02-01T08:31:43;8.43;;;1.90;;
76733;SDS011;65660;53.288;14.666;2023-02-01T08:36:43;6.40;;;2.10;;
76733;SDS011;65660;53.288;14.666;2023-02-01T08:41:44;5.93;;;1.70;;
76733;SDS011;65660;53.288;14.666;2023-02-01T08:46:44;6.10;;;2.03;;
76733;SDS011;65660;53.288;14.666;2023-02-01T08:51:45;5.93;;;1.70;;
76733;SDS011;65660;53.288;14.666;2023-02-01T08:56:45;4.87;;;1.67;;
76733;SDS011;65660;53.288;14.666;2023-02-01T09:01:45;3.57;;;1.60;;
76733;SDS011;65660;53.288;14.666;2023-02-01T09:06:46;4.20;;;1.60;;
76733;SDS011;65660;53.288;14.666;2023-02-01T09:11:46;3.63;;;1.70;;
76733;SDS011;65660;53.288;14.666;2023-02-01T09:16:47;2.13;;;1.73;;
76733;SDS011;65660;53.288;14.666;2023-02-01T09:21:47;2.50;;;1.00;;
76733;SDS011;65660;53.288;14.666;2023-02-01T09:26:48;2.37;;;1.30;;
76733;SDS011;65660;53.288;14.666;2023-02-01T09:31:48;2.27;;;1.20;;
76733;SDS011;65660;53.288;14.666;2023-02-01T09:36:49;2.23;;;2.00;;
76733;SDS011;65660;53.288;14.666;2023-02-01T09:46:52;3.40;;;2.97;;
76733;SDS011;65660;53.288;14.666;2023-02-01T09:51:54;3.53;;;1.60;;
76733;SDS011;65660;53.288;14.666;2023-02-01T09:56:58;1.70;;;1.30;;
76733;SDS011;65660;53.288;14.666;2023-02-01T10:02:03;2.20;;;1.70;;
76733;SDS011;65660;53.288;14.666;2023-02-01T10:28:43;4.33;;;1.70;;
76733;SDS011;65660;53.288;14.666;2023-02-01T10:33:47;7.53;;;2.10;;
76733;SDS011;65660;53.288;14.666;2023-02-01T10:38:49;5.80;;;2.50;;
76733;SDS011;65660;53.288;14.666;2023-02-01T10:43:50;4.97;;;2.63;;
76733;SDS011;65660;53.288;14.666;2023-02-01T10:48:54;4.63;;;1.50;;
76733;SDS011;65660;53.288;14.666;2023-02-01T10:54:14;3.37;;;1.37;;
76733;SDS011;65660;53.288;14.666;2023-02-01T10:59:24;5.23;;;1.77;;
76733;SDS011;65660;53.288;14.666;2023-02-01T11:04:25;5.53;;;1.83;;
76733;SDS011;65660;53.288;14.666;2023-02-01T11:09:26;3.37;;;1.63;;
76733;SDS011;65660;53.288;14.666;2023-02-01T11:14:28;5.50;;;2.10;;
76733;SDS011;65660;53.288;14.666;2023-02-01T11:19:35;5.90;;;2.00;;
76733;SDS011;65660;53.288;14.666;2023-02-01T11:24:35;7.17;;;2.13;;
76733;SDS011;65660;53.288;14.666;2023-02-01T11:29:38;8.00;;;2.10;;
76733;SDS011;65660;53.288;14.666;2023-02-01T11:39:44;6.50;;;2.20;;
76733;SDS011;65660;53.288;14.666;2023-02-01T11:45:46;9.97;;;2.70;;
76733;SDS011;65660;53.288;14.666;2023-02-01T11:50:34;6.47;;;2.80;;
76733;SDS011;65660;53.288;14.666;2023-02-01T11:55:46;10.07;;;2.70;;
76733;SDS011;65660;53.288;14.666;2023-02-01T12:06:53;11.23;;;2.73;;
76733;SDS011;65660;53.288;14.666;2023-02-01T12:12:01;8.97;;;2.77;;
76733;SDS011;65660;53.288;14.666;2023-02-01T12:17:18;10.63;;;2.77;;
76733;SDS011;65660;53.288;14.666;2023-02-01T12:38:24;11.37;;;3.60;;
76733;SDS011;65660;53.288;14.666;2023-02-01T12:43:40;10.77;;;3.03;;
76733;SDS011;65660;53.288;14.666;2023-02-01T12:54:04;5.87;;;1.97;;
76733;SDS011;65660;53.288;14.666;2023-02-01T12:59:17;3.17;;;1.30;;
76733;SDS011;65660;53.288;14.666;2023-02-01T13:09:57;4.87;;;2.00;;
76733;SDS011;65660;53.288;14.666;2023-02-01T13:20:26;4.00;;;1.63;;
76733;SDS011;65660;53.288;14.666;2023-02-01T13:25:47;8.07;;;2.47;;
76733;SDS011;65660;53.288;14.666;2023-02-01T13:31:15;6.03;;;2.33;;
76733;SDS011;65660;53.288;14.666;2023-02-01T13:42:02;6.67;;;2.70;;
76733;SDS011;65660;53.288;14.666;2023-02-01T13:47:11;9.67;;;2.40;;
76733;SDS011;65660;53.288;14.666;2023-02-01T13:52:24;13.37;;;2.53;;
76733;SDS011;65660;53.288;14.666;2023-02-01T13:57:39;7.20;;;1.80;;
76733;SDS011;65660;53.288;14.666;2023-02-01T14:08:40;1.50;;;1.30;;
76733;SDS011;65660;53.288;14.666;2023-02-01T14:13:41;2.23;;;1.33;;
76733;SDS011;65660;53.288;14.666;2023-02-01T14:23:42;3.33;;;1.50;;
76733;SDS011;65660;53.288;14.666;2023-02-01T14:29:32;3.23;;;1.60;;
76733;SDS011;65660;53.288;14.666;2023-02-01T14:34:16;4.73;;;2.20;;
76733;SDS011;65660;53.288;14.666;2023-02-01T14:39:29;3.63;;;1.80;;
76733;SDS011;65660;53.288;14.666;2023-02-01T14:44:35;6.87;;;2.60;;
76733;SDS011;65660;53.288;14.666;2023-02-01T14:49:42;5.87;;;2.30;;
76733;SDS011;65660;53.288;14.666;2023-02-01T14:54:53;11.00;;;2.87;;
76733;SDS011;65660;53.288;14.666;2023-02-01T14:59:59;7.87;;;2.43;;
76733;SDS011;65660;53.288;14.666;2023-02-01T15:05:20;8.97;;;2.10;;
76733;SDS011;65660;53.288;14.666;2023-02-01T15:10:24;5.67;;;1.90;;
76733;SDS011;65660;53.288;14.666;2023-02-01T15:15:24;6.70;;;2.07;;
76733;SDS011;65660;53.288;14.666;2023-02-01T15:20:27;5.13;;;1.93;;
76733;SDS011;65660;53.288;14.666;2023-02-01T15:25:33;7.27;;;2.13;;
76733;SDS011;65660;53.288;14.666;2023-02-01T15:30:37;5.60;;;1.90;;
76733;SDS011;65660;53.288;14.666;2023-02-01T15:35:39;8.43;;;2.43;;
76733;SDS011;65660;53.288;14.666;2023-02-01T15:40:52;7.37;;;2.33;;
76733;SDS011;65660;53.288;14.666;2023-02-01T15:45:57;9.17;;;3.00;;
76733;SDS011;65660;53.288;14.666;2023-02-01T15:50:59;6.23;;;1.83;;
76733;SDS011;65660;53.288;14.666;2023-02-01T15:56:01;4.40;;;1.70;;
76733;SDS011;65660;53.288;14.666;2023-02-01T16:01:04;7.93;;;1.90;;
76733;SDS011;65660;53.288;14.666;2023-02-01T16:06:07;6.93;;;1.90;;
76733;SDS011;65660;53.288;14.666;2023-02-01T16:16:09;5.60;;;1.87;;
76733;SDS011;65660;53.288;14.666;2023-02-01T16:21:09;6.63;;;2.07;;
76733;SDS011;65660;53.288;14.666;2023-02-01T16:32:11;5.33;;;2.00;;
76733;SDS011;65660;53.288;14.666;2023-02-01T16:37:20;6.23;;;2.33;;
76733;SDS011;65660;53.288;14.666;2023-02-01T16:42:24;4.13;;;1.40;;
76733;SDS011;65660;53.288;14.666;2023-02-01T16:47:24;2.27;;;1.00;;
76733;SDS011;65660;53.288;14.666;2023-02-01T16:52:25;1.53;;;1.10;;
76733;SDS011;65660;53.288;14.666;2023-02-01T16:57:27;2.90;;;1.10;;
76733;SDS011;65660;53.288;14.666;2023-02-01T17:02:27;1.73;;;1.17;;
76733;SDS011;65660;53.288;14.666;2023-02-01T17:07:27;2.57;;;1.40;;
76733;SDS011;65660;53.288;14.666;2023-02-01T17:12:29;3.67;;;1.80;;
76733;SDS011;65660;53.288;14.666;2023-02-01T17:17:35;3.07;;;1.27;;
76733;SDS011;65660;53.288;14.666;2023-02-01T17:22:37;5.57;;;1.53;;
76733;SDS011;65660;53.288;14.666;2023-02-01T17:27:37;2.73;;;1.20;;
76733;SDS011;65660;53.288;14.666;2023-02-01T17:32:38;4.00;;;1.30;;
76733;SDS011;65660;53.288;14.666;2023-02-01T17:37:39;2.10;;;1.13;;
76733;SDS011;65660;53.288;14.666;2023-02-01T17:42:40;5.73;;;1.40;;
76733;SDS011;65660;53.288;14.666;2023-02-01T17:47:40;5.00;;;1.50;;
76733;SDS011;65660;53.288;14.666;2023-02-01T17:52:41;3.90;;;1.30;;
76733;SDS011;65660;53.288;14.666;2023-02-01T17:57:41;2.83;;;1.33;;
76733;SDS011;65660;53.288;14.666;2023-02-01T18:02:42;5.37;;;1.80;;
76733;SDS011;65660;53.288;14.666;2023-02-01T18:07:42;2.60;;;1.50;;
76733;SDS011;65660;53.288;14.666;2023-02-01T18:12:43;5.07;;;1.60;;
76733;SDS011;65660;53.288;14.666;2023-02-01T18:17:43;4.13;;;1.40;;
76733;SDS011;65660;53.288;14.666;2023-02-01T18:22:44;2.80;;;1.90;;
76733;SDS011;65660;53.288;14.666;2023-02-01T18:27:49;5.67;;;2.80;;
76733;SDS011;65660;53.288;14.666;2023-02-01T18:32:50;2.57;;;1.60;;
76733;SDS011;65660;53.288;14.666;2023-02-01T18:37:51;4.27;;;1.80;;
76733;SDS011;65660;53.288;14.666;2023-02-01T18:42:52;2.03;;;1.40;;
76733;SDS011;65660;53.288;14.666;2023-02-01T18:47:52;3.50;;;1.10;;
76733;SDS011;65660;53.288;14.666;2023-02-01T18:52:54;6.10;;;1.30;;
76733;SDS011;65660;53.288;14.666;2023-02-01T18:57:55;5.63;;;1.30;;
76733;SDS011;65660;53.288;14.666;2023-02-01T19:02:55;5.50;;;1.10;;
76733;SDS011;65660;53.288;14.666;2023-02-01T19:07:57;3.53;;;1.30;;
76733;SDS011;65660;53.288;14.666;2023-02-01T19:12:58;3.97;;;1.20;;
76733;SDS011;65660;53.288;14.666;2023-02-01T19:17:59;3.73;;;1.20;;
76733;SDS011;65660;53.288;14.666;2023-02-01T19:22:59;4.50;;;1.37;;
76733;SDS011;65660;53.288;14.666;2023-02-01T19:28:00;6.17;;;1.50;;
76733;SDS011;65660;53.288;14.666;2023-02-01T19:33:02;4.30;;;1.47;;
76733;SDS011;65660;53.288;14.666;2023-02-01T19:38:03;6.40;;;2.13;;
76733;SDS011;65660;53.288;14.666;2023-02-01T19:43:04;10.10;;;2.17;;
76733;SDS011;65660;53.288;14.666;2023-02-01T19:48:04;11.23;;;3.23;;
76733;SDS011;65660;53.288;14.666;2023-02-01T19:53:05;10.37;;;2.93;;
76733;SDS011;65660;53.288;14.666;2023-02-01T19:58:06;10.37;;;2.43;;
76733;SDS011;65660;53.288;14.666;2023-02-01T20:03:06;15.07;;;3.20;;
76733;SDS011;65660;53.288;14.666;2023-02-01T20:08:07;11.93;;;2.47;;
76733;SDS011;65660;53.288;14.666;2023-02-01T20:13:07;9.37;;;2.43;;
76733;SDS011;65660;53.288;14.666;2023-02-01T20:18:08;11.43;;;2.83;;
76733;SDS011;65660;53.288;14.666;2023-02-01T20:23:09;12.77;;;3.57;;
76733;SDS011;65660;53.288;14.666;2023-02-01T20:28:09;14.20;;;3.10;;
76733;SDS011;65660;53.288;14.666;2023-02-01T20:33:10;12.93;;;2.80;;
76733;SDS011;65660;53.288;14.666;2023-02-01T20:38:10;11.93;;;2.87;;
76733;SDS011;65660;53.288;14.666;2023-02-01T20:43:11;12.73;;;3.20;;
76733;SDS011;65660;53.288;14.666;2023-02-01T20:48:11;13.20;;;2.67;;
76733;SDS011;65660;53.288;14.666;2023-02-01T20:53:11;17.17;;;3.73;;
76733;SDS011;65660;53.288;14.666;2023-02-01T20:58:12;15.17;;;2.83;;
76733;SDS011;65660;53.288;14.666;2023-02-01T21:03:13;18.17;;;3.10;;
76733;SDS011;65660;53.288;14.666;2023-02-01T21:08:14;14.80;;;3.20;;
76733;SDS011;65660;53.288;14.666;2023-02-01T21:13:14;12.87;;;3.27;;
76733;SDS011;65660;53.288;14.666;2023-02-01T21:18:15;16.00;;;4.10;;
76733;SDS011;65660;53.288;14.666;2023-02-01T21:23:15;17.80;;;3.60;;
76733;SDS011;65660;53.288;14.666;2023-02-01T21:28:16;18.53;;;3.60;;
76733;SDS011;65660;53.288;14.666;2023-02-01T21:33:16;20.03;;;3.57;;
76733;SDS011;65660;53.288;14.666;2023-02-01T21:38:17;17.37;;;3.20;;
76733;SDS011;65660;53.288;14.666;2023-02-01T21:43:17;12.50;;;3.37;;
76733;SDS011;65660;53.288;14.666;2023-02-01T21:48:18;15.00;;;3.60;;
76733;SDS011;65660;53.288;14.666;2023-02-01T21:53:18;13.53;;;3.70;;
76733;SDS011;65660;53.288;14.666;2023-02-01T21:58:19;16.00;;;3.93;;
76733;SDS011;65660;53.288;14.666;2023-02-01T22:03:19;17.40;;;3.57;;
76733;SDS011;65660;53.288;14.666;2023-02-01T22:08:20;13.20;;;3.90;;
76733;SDS011;65660;53.288;14.666;2023-02-01T22:13:20;23.13;;;3.80;;
76733;SDS011;65660;53.288;14.666;2023-02-01T22:18:21;23.37;;;4.10;;
76733;SDS011;65660;53.288;14.666;2023-02-01T22:23:22;17.70;;;4.03;;
76733;SDS011;65660;53.288;14.666;2023-02-01T22:28:22;12.87;;;3.43;;
76733;SDS011;65660;53.288;14.666;2023-02-01T22:33:23;15.03;;;3.93;;
76733;SDS011;65660;53.288;14.666;2023-02-01T22:38:25;11.73;;;2.97;;
76733;SDS011;65660;53.288;14.666;2023-02-01T22:43:25;23.57;;;3.50;;
76733;SDS011;65660;53.288;14.666;2023-02-01T22:48:27;17.10;;;3.60;;
76733;SDS011;65660;53.288;14.666;2023-02-01T22:53:31;14.77;;;3.40;;
76733;SDS011;65660;53.288;14.666;2023-02-01T22:58:32;14.80;;;2.90;;
76733;SDS011;65660;53.288;14.666;2023-02-01T23:03:34;16.87;;;3.47;;
76733;SDS011;65660;53.288;14.666;2023-02-01T23:08:35;16.43;;;3.13;;
76733;SDS011;65660;53.288;14.666;2023-02-01T23:13:36;17.50;;;3.30;;
76733;SDS011;65660;53.288;14.666;2023-02-01T23:18:37;15.47;;;3.23;;
76733;SDS011;65660;53.288;14.666;2023-02-01T23:23:38;12.10;;;3.30;;
76733;SDS011;65660;53.288;14.666;2023-02-01T23:28:39;12.37;;;3.53;;
76733;SDS011;65660;53.288;14.666;2023-02-01T23:33:39;12.07;;;2.70;;
76733;SDS011;65660;53.288;14.666;2023-02-01T23:38:41;12.37;;;3.20;;
76733;SDS011;65660;53.288;14.666;2023-02-01T23:43:42;10.43;;;2.60;;
76733;SDS011;65660;53.288;14.666;2023-02-01T23:48:43;13.07;;;2.93;;
76733;SDS011;65660;53.288;14.666;2023-02-01T23:53:45;18.83;;;3.00;;
76733;SDS011;65660;53.288;14.666;2023-02-01T23:58:46;14.47;;;3.00;;
